Time;durP1;ratioP1;P1;durP2;ratioP2;P2;SDS_P1;SDS_P2;PMS_P1;PMS_P2;Temp;Humidity;BMP_temperature;BMP_pressure;BME280_temperature;BME280_humidity;BME280_pressure;Samples;Min_cycle;Max_cycle;Signal;HPM_P1;HPM_P2
2023/01/07 00:09:34;;;;;;;16.27;5.35;;;;;;;;;;2114561;27;20373;-63
2023/01/07 00:10:34;;;;;;;21.23;6.25;;;;;;;;;;2114486;28;20027;-63
2023/01/07 00:11:35;;;;;;;19.35;5.97;;;;;;;;;;2113617;28;20061;-65
2023/01/07 00:12:36;;;;;;;14.10;5.95;;;;;;;;;;2122085;28;20186;-63
2023/01/07 00:13:36;;;;;;;14.57;5.90;;;;;;;;;;2122267;28;20030;-63
2023/01/07 00:14:36;;;;;;;20.83;5.90;;;;;;;;;;2122880;28;20023;-63
2023/01/07 00:15:36;;;;;;;25.02;6.47;;;;;;;;;;2118198;27;20020;-63
2023/01/07 00:16:37;;;;;;;28.25;5.97;;;;;;;;;;2113307;28;20020;-64
2023/01/07 00:17:37;;;;;;;15.60;5.50;;;;;;;;;;2109104;28;20073;-63
2023/01/07 00:18:37;;;;;;;16.70;5.47;;;;;;;;;;2113599;28;20077;-63
2023/01/07 00:19:37;;;;;;;19.50;5.97;;;;;;;;;;2113790;28;20289;-63
2023/01/07 00:20:37;;;;;;;19.55;6.00;;;;;;;;;;2114229;28;20065;-63
2023/01/07 00:21:38;;;;;;;21.37;7.00;;;;;;;;;;2114367;28;20362;-63
2023/01/07 00:22:38;;;;;;;18.50;5.78;;;;;;;;;;2112488;28;20252;-63
2023/01/07 00:23:39;;;;;;;17.83;5.73;;;;;;;;;;2114504;28;20027;-63
2023/01/07 00:24:39;;;;;;;17.48;5.70;;;;;;;;;;2114235;28;20306;-63
2023/01/07 00:25:39;;;;;;;15.57;6.03;;;;;;;;;;2114368;28;20099;-64
2023/01/07 00:26:40;;;;;;;12.55;4.95;;;;;;;;;;2113565;28;20355;-64
2023/01/07 00:27:40;;;;;;;14.77;5.35;;;;;;;;;;2111669;28;20019;-61
2023/01/07 00:28:41;;;;;;;14.83;5.60;;;;;;;;;;2102927;28;20033;-62
2023/01/07 00:29:41;;;;;;;15.85;5.43;;;;;;;;;;2105779;28;20325;-62
2023/01/07 00:30:41;;;;;;;14.40;5.70;;;;;;;;;;2105622;28;20022;-62
2023/01/07 00:31:41;;;;;;;11.70;5.45;;;;;;;;;;2105941;28;20390;-62
2023/01/07 00:34:22;;;;;;;16.02;5.65;;;;;;;;;;2088123;28;20773;-61
2023/01/07 00:35:22;;;;;;;17.92;5.95;;;;;;;;;;2087970;28;20017;-62
2023/01/07 00:36:23;;;;;;;11.80;5.50;;;;;;;;;;2090903;28;20040;-62
2023/01/07 00:38:42;;;;;;;14.32;5.30;;;;;;;;;;2105832;28;20020;-62
2023/01/07 00:39:42;;;;;;;15.70;6.22;;;;;;;;;;2106103;28;20024;-62
2023/01/07 00:40:43;;;;;;;17.25;6.07;;;;;;;;;;2105868;28;20036;-61
2023/01/07 00:42:53;;;;;;;21.50;5.97;;;;;;;;;;2105874;28;20382;-61
2023/01/07 00:43:06;;;;;;;14.75;5.78;;;;;;;;;;2105655;28;20375;-62
2023/01/07 00:44:07;;;;;;;20.00;5.60;;;;;;;;;;2105973;28;20024;-61
2023/01/07 00:45:10;;;;;;;14.15;6.47;;;;;;;;;;2105635;28;20413;-61
2023/01/07 00:46:12;;;;;;;14.77;5.85;;;;;;;;;;2105911;28;20447;-61
2023/01/07 00:47:12;;;;;;;15.43;5.70;;;;;;;;;;2105548;28;20045;-62
2023/01/07 00:48:12;;;;;;;12.27;5.47;;;;;;;;;;2105778;28;20016;-61
2023/01/07 00:49:12;;;;;;;14.73;5.78;;;;;;;;;;2105559;28;20052;-61
2023/01/07 00:50:13;;;;;;;14.77;5.63;;;;;;;;;;2105755;28;20375;-61
2023/01/07 00:51:13;;;;;;;17.17;6.03;;;;;;;;;;2105649;28;20030;-62
2023/01/07 00:52:14;;;;;;;23.67;7.35;;;;;;;;;;2105675;28;20021;-61
2023/01/07 00:53:14;;;;;;;18.30;5.68;;;;;;;;;;2105621;28;20031;-61
2023/01/07 00:54:15;;;;;;;15.57;5.60;;;;;;;;;;2105638;28;20103;-61
2023/01/07 00:55:15;;;;;;;23.50;6.75;;;;;;;;;;2105692;28;20467;-63
2023/01/07 00:56:16;;;;;;;19.15;6.05;;;;;;;;;;2106638;28;20017;-62
2023/01/07 00:57:16;;;;;;;13.73;6.38;;;;;;;;;;2109098;28;20073;-62
2023/01/07 00:58:21;;;;;;;12.43;5.73;;;;;;;;;;2110459;28;20519;-61
2023/01/07 00:59:21;;;;;;;23.10;6.30;;;;;;;;;;2113403;28;20264;-61
2023/01/07 01:00:22;;;;;;;12.52;5.88;;;;;;;;;;2106102;28;20107;-60
2023/01/07 01:01:22;;;;;;;18.98;6.78;;;;;;;;;;2109323;28;20392;-62
2023/01/07 01:02:22;;;;;;;15.63;5.97;;;;;;;;;;2114003;28;20052;-63
2023/01/07 01:03:22;;;;;;;19.45;6.75;;;;;;;;;;2113199;28;20091;-63
2023/01/07 01:04:22;;;;;;;19.45;6.68;;;;;;;;;;2113942;28;20572;-61
2023/01/07 01:05:23;;;;;;;11.97;6.10;;;;;;;;;;2111233;28;20043;-62
2023/01/07 01:06:23;;;;;;;16.58;6.18;;;;;;;;;;2111774;28;20343;-64
2023/01/07 01:07:23;;;;;;;13.27;5.90;;;;;;;;;;2112064;28;20024;-62
2023/01/07 01:08:23;;;;;;;15.17;6.13;;;;;;;;;;2112814;28;20711;-62
2023/01/07 01:09:25;;;;;;;18.70;6.47;;;;;;;;;;2111923;28;20288;-62
2023/01/07 01:10:26;;;;;;;16.30;6.95;;;;;;;;;;2113435;28;20638;-61
2023/01/07 01:11:26;;;;;;;18.88;6.72;;;;;;;;;;2108783;28;20043;-62
2023/01/07 01:12:27;;;;;;;22.48;7.38;;;;;;;;;;2113741;28;20046;-62
2023/01/07 01:13:27;;;;;;;21.95;7.25;;;;;;;;;;2108876;28;20445;-62
2023/01/07 01:14:27;;;;;;;14.68;6.63;;;;;;;;;;2107360;28;20061;-62
2023/01/07 01:15:27;;;;;;;23.33;6.90;;;;;;;;;;2113334;28;20027;-62
2023/01/07 01:16:27;;;;;;;15.37;6.93;;;;;;;;;;2112962;28;20265;-62
2023/01/07 01:17:28;;;;;;;17.57;6.57;;;;;;;;;;2113305;28;20260;-63
2023/01/07 01:18:28;;;;;;;18.10;6.85;;;;;;;;;;2110482;28;20261;-62
2023/01/07 01:19:28;;;;;;;20.75;6.78;;;;;;;;;;2113056;28;20016;-61
2023/01/07 01:20:28;;;;;;;18.33;6.85;;;;;;;;;;2111016;28;20012;-62
2023/01/07 01:21:28;;;;;;;16.40;7.13;;;;;;;;;;2108465;28;20058;-63
2023/01/07 01:22:28;;;;;;;20.70;7.72;;;;;;;;;;2108407;28;20321;-62
2023/01/07 01:23:28;;;;;;;15.45;6.93;;;;;;;;;;2103739;28;20027;-62
2023/01/07 01:24:29;;;;;;;18.20;6.70;;;;;;;;;;2104991;28;20028;-62
2023/01/07 01:25:29;;;;;;;21.75;6.90;;;;;;;;;;2108156;28;20028;-62
2023/01/07 01:26:29;;;;;;;16.52;6.65;;;;;;;;;;2104972;28;20026;-62
2023/01/07 01:27:30;;;;;;;13.65;6.68;;;;;;;;;;2108115;28;20470;-63
2023/01/07 01:28:30;;;;;;;17.98;6.80;;;;;;;;;;2101934;28;20043;-62
2023/01/07 01:29:30;;;;;;;18.17;7.53;;;;;;;;;;2105303;28;20223;-62
2023/01/07 01:30:30;;;;;;;18.90;7.00;;;;;;;;;;2108312;28;20028;-62
2023/01/07 01:31:31;;;;;;;19.23;6.65;;;;;;;;;;2107246;28;20035;-62
2023/01/07 01:32:31;;;;;;;19.52;7.63;;;;;;;;;;2108258;28;20348;-62
2023/01/07 01:33:31;;;;;;;19.60;7.05;;;;;;;;;;2105988;28;20119;-62
2023/01/07 01:34:32;;;;;;;20.63;8.23;;;;;;;;;;2106846;28;20497;-62
2023/01/07 01:35:32;;;;;;;15.85;6.40;;;;;;;;;;2107129;28;20359;-62
2023/01/07 01:36:32;;;;;;;19.50;7.78;;;;;;;;;;2104188;28;20138;-63
2023/01/07 01:37:32;;;;;;;17.85;7.00;;;;;;;;;;2108133;28;20036;-62
2023/01/07 01:38:32;;;;;;;13.43;6.35;;;;;;;;;;2106219;28;20041;-62
2023/01/07 01:39:32;;;;;;;19.33;6.88;;;;;;;;;;2107971;28;20015;-62
2023/01/07 01:40:33;;;;;;;18.48;7.10;;;;;;;;;;2106985;28;20024;-63
2023/01/07 01:41:33;;;;;;;14.60;6.40;;;;;;;;;;2103320;28;20019;-62
2023/01/07 01:42:33;;;;;;;21.60;7.28;;;;;;;;;;2106971;28;20016;-62
2023/01/07 01:43:35;;;;;;;15.65;6.75;;;;;;;;;;2108073;28;20012;-62
2023/01/07 01:44:51;;;;;;;20.65;7.57;;;;;;;;;;2102092;28;20107;-62
2023/01/07 01:45:52;;;;;;;18.58;6.43;;;;;;;;;;2108048;28;20024;-61
2023/01/07 01:46:52;;;;;;;14.75;7.22;;;;;;;;;;2106533;28;20032;-61
2023/01/07 01:47:55;;;;;;;22.43;6.83;;;;;;;;;;2108065;28;20027;-62
2023/01/07 01:48:59;;;;;;;15.32;7.05;;;;;;;;;;2105977;28;20321;-62
2023/01/07 01:50:03;;;;;;;15.25;6.55;;;;;;;;;;2108077;28;20024;-62
2023/01/07 01:51:03;;;;;;;18.73;7.05;;;;;;;;;;2108107;28;20077;-62
2023/01/07 01:52:14;;;;;;;19.85;7.35;;;;;;;;;;2107978;28;20375;-63
2023/01/07 01:53:24;;;;;;;22.13;7.45;;;;;;;;;;2104192;28;20463;-63
2023/01/07 01:54:24;;;;;;;17.92;7.70;;;;;;;;;;2091257;28;20025;-63
2023/01/07 01:55:27;;;;;;;11.80;7.03;;;;;;;;;;2091448;28;20025;-62
2023/01/07 01:56:29;;;;;;;15.15;7.50;;;;;;;;;;2101367;28;20487;-63
2023/01/07 01:57:31;;;;;;;16.98;7.93;;;;;;;;;;2107833;28;20409;-63
2023/01/07 01:58:34;;;;;;;19.10;7.70;;;;;;;;;;2104746;28;20047;-61
2023/01/07 01:59:36;;;;;;;21.23;8.52;;;;;;;;;;2104624;28;20042;-62
2023/01/07 02:00:37;;;;;;;23.45;8.02;;;;;;;;;;2105804;28;20051;-63
2023/01/07 02:01:37;;;;;;;17.60;7.32;;;;;;;;;;2107103;28;20016;-62
2023/01/07 02:02:44;;;;;;;22.02;7.82;;;;;;;;;;2107135;28;20121;-62
2023/01/07 02:03:44;;;;;;;18.00;7.78;;;;;;;;;;2091467;28;20457;-62
2023/01/07 02:04:45;;;;;;;17.13;7.97;;;;;;;;;;2106015;28;20016;-62
2023/01/07 02:05:45;;;;;;;17.38;7.47;;;;;;;;;;2107309;28;20020;-61
2023/01/07 02:06:51;;;;;;;20.02;8.23;;;;;;;;;;2099422;28;20012;-62
2023/01/07 02:07:51;;;;;;;14.77;7.15;;;;;;;;;;2099778;28;20024;-62
2023/01/07 02:08:51;;;;;;;21.77;8.38;;;;;;;;;;2098433;28;20049;-62
2023/01/07 02:09:56;;;;;;;19.60;8.35;;;;;;;;;;2108174;28;20066;-62
2023/01/07 02:11:22;;;;;;;16.77;7.47;;;;;;;;;;2102285;28;20032;-62
2023/01/07 02:12:43;;;;;;;17.88;7.25;;;;;;;;;;2104655;28;20494;-62
2023/01/07 02:14:02;;;;;;;18.65;7.63;;;;;;;;;;2099401;28;20028;-62
2023/01/07 02:15:10;;;;;;;24.33;7.45;;;;;;;;;;2107704;28;20020;-62
2023/01/07 02:16:16;;;;;;;17.50;7.43;;;;;;;;;;2105850;28;20481;-62
2023/01/07 02:17:31;;;;;;;16.33;7.38;;;;;;;;;;2106814;28;20435;-62
2023/01/07 02:18:44;;;;;;;15.65;7.93;;;;;;;;;;2107749;28;20019;-63
2023/01/07 02:20:10;;;;;;;31.10;9.52;;;;;;;;;;2091390;28;20017;-63
2023/01/07 02:21:29;;;;;;;16.20;7.60;;;;;;;;;;2098737;28;20032;-62
2023/01/07 02:22:40;;;;;;;19.67;7.55;;;;;;;;;;2102469;28;20048;-62
2023/01/07 02:24:05;;;;;;;21.77;7.55;;;;;;;;;;2104171;28;20375;-62
2023/01/07 02:25:08;;;;;;;20.45;7.63;;;;;;;;;;2106191;28;20477;-61
2023/01/07 02:26:11;;;;;;;17.58;8.10;;;;;;;;;;2103213;28;20013;-62
2023/01/07 02:27:22;;;;;;;21.55;8.18;;;;;;;;;;2107664;28;20372;-62
2023/01/07 02:28:22;;;;;;;;;;;;;;;;;;2101768;28;20023;-62
2023/01/07 02:29:25;;;;;;;12.47;7.37;;;;;;;;;;2107592;28;19915;-61
2023/01/07 02:30:47;;;;;;;15.65;8.13;;;;;;;;;;2101252;28;20031;-61
2023/01/07 02:31:47;;;;;;;20.75;8.32;;;;;;;;;;2104657;28;20042;-61
2023/01/07 02:32:59;;;;;;;17.57;7.73;;;;;;;;;;2106617;28;20103;-62
2023/01/07 02:34:04;;;;;;;19.73;8.10;;;;;;;;;;2106241;28;20260;-62
2023/01/07 02:35:17;;;;;;;19.27;7.55;;;;;;;;;;2107965;28;20020;-61
2023/01/07 02:36:25;;;;;;;17.73;7.82;;;;;;;;;;2105819;28;20039;-61
2023/01/07 02:37:31;;;;;;;22.60;8.23;;;;;;;;;;2107718;28;20442;-61
2023/01/07 02:38:55;;;;;;;20.92;8.75;;;;;;;;;;2104609;28;20024;-61
2023/01/07 02:40:12;;;;;;;18.70;7.80;;;;;;;;;;2107689;28;20114;-61
2023/01/07 02:41:31;;;;;;;16.25;7.57;;;;;;;;;;2104899;28;20407;-62
2023/01/07 02:42:50;;;;;;;17.00;7.97;;;;;;;;;;2107519;28;20024;-61
2023/01/07 02:43:53;;;;;;;19.45;8.45;;;;;;;;;;2104630;28;20062;-62
2023/01/07 02:44:53;;;;;;;20.27;8.23;;;;;;;;;;2105658;28;20504;-61
2023/01/07 02:45:56;;;;;;;18.00;7.78;;;;;;;;;;2107654;28;20016;-61
2023/01/07 02:46:57;;;;;;;18.60;8.13;;;;;;;;;;2107680;28;20031;-61
2023/01/07 02:48:02;;;;;;;19.73;8.10;;;;;;;;;;2104932;28;20044;-61
2023/01/07 02:49:06;;;;;;;18.08;8.07;;;;;;;;;;2107539;28;20028;-61
2023/01/07 02:50:07;;;;;;;21.98;8.85;;;;;;;;;;2106613;28;20028;-61
2023/01/07 02:51:07;;;;;;;22.25;8.75;;;;;;;;;;2107683;28;20020;-61
2023/01/07 02:52:14;;;;;;;16.23;8.43;;;;;;;;;;2107528;28;20024;-62
2023/01/07 02:53:17;;;;;;;21.67;8.10;;;;;;;;;;2103041;28;20111;-61
2023/01/07 02:54:20;;;;;;;18.70;8.70;;;;;;;;;;2107472;28;20028;-62
2023/01/07 02:55:29;;;;;;;17.38;8.02;;;;;;;;;;2107539;28;20028;-62
2023/01/07 02:56:44;;;;;;;16.67;8.52;;;;;;;;;;2104661;28;20023;-61
2023/01/07 02:57:47;;;;;;;16.65;8.65;;;;;;;;;;2099438;28;20452;-61
2023/01/07 02:59:05;;;;;;;18.15;8.38;;;;;;;;;;2104355;28;20048;-62
2023/01/07 03:00:06;;;;;;;18.50;8.48;;;;;;;;;;2102442;28;20033;-62
2023/01/07 03:01:29;;;;;;;16.23;8.15;;;;;;;;;;2101961;28;20449;-61
2023/01/07 03:02:38;;;;;;;16.40;9.05;;;;;;;;;;2107702;28;20359;-62
2023/01/07 03:03:54;;;;;;;18.00;8.45;;;;;;;;;;2101155;28;20075;-62
2023/01/07 03:04:54;;;;;;;19.13;9.05;;;;;;;;;;2106385;28;20429;-61
2023/01/07 03:06:16;;;;;;;21.10;9.00;;;;;;;;;;2101393;28;20024;-63
2023/01/07 03:07:37;;;;;;;13.38;8.25;;;;;;;;;;2106622;28;20295;-61
2023/01/07 03:08:41;;;;;;;19.90;8.93;;;;;;;;;;2107136;28;20023;-61
2023/01/07 03:10:02;;;;;;;21.55;8.93;;;;;;;;;;2104550;28;20027;-62
2023/01/07 03:11:06;;;;;;;18.75;8.43;;;;;;;;;;2080703;28;20492;-61
2023/01/07 03:12:13;;;;;;;15.90;8.38;;;;;;;;;;2101234;28;20410;-62
2023/01/07 03:13:16;;;;;;;23.77;9.38;;;;;;;;;;2101465;28;20021;-61
2023/01/07 03:14:18;;;;;;;18.25;9.27;;;;;;;;;;2102424;28;20106;-62
2023/01/07 03:15:23;;;;;;;20.00;9.65;;;;;;;;;;2103798;28;20024;-62
2023/01/07 03:16:37;;;;;;;22.08;10.60;;;;;;;;;;2106737;28;20360;-62
2023/01/07 03:17:43;;;;;;;23.42;11.05;;;;;;;;;;2106440;28;20070;-61
2023/01/07 03:18:49;;;;;;;24.85;10.93;;;;;;;;;;2107230;28;20408;-61
2023/01/07 03:19:53;;;;;;;25.80;11.55;;;;;;;;;;2107349;28;20024;-61
2023/01/07 03:20:56;;;;;;;22.02;11.82;;;;;;;;;;2103715;28;20023;-61
2023/01/07 03:21:57;;;;;;;24.60;11.98;;;;;;;;;;2106160;28;20016;-61
2023/01/07 03:22:58;;;;;;;26.05;12.85;;;;;;;;;;2107383;28;20035;-62
2023/01/07 03:23:59;;;;;;;27.25;13.20;;;;;;;;;;2100529;28;20028;-62
2023/01/07 03:25:00;;;;;;;24.27;12.23;;;;;;;;;;2107390;28;20028;-61
2023/01/07 03:26:02;;;;;;;23.33;12.85;;;;;;;;;;2105723;28;20024;-61
2023/01/07 03:27:04;;;;;;;26.60;13.20;;;;;;;;;;2106575;28;20396;-62
2023/01/07 03:28:06;;;;;;;26.85;12.18;;;;;;;;;;2103207;28;20020;-61
2023/01/07 03:29:07;;;;;;;29.25;13.75;;;;;;;;;;2106272;28;20024;-61
2023/01/07 03:30:09;;;;;;;24.77;13.02;;;;;;;;;;2107185;28;20478;-61
2023/01/07 03:31:11;;;;;;;19.50;12.52;;;;;;;;;;2099872;28;20016;-61
2023/01/07 03:32:17;;;;;;;24.65;13.68;;;;;;;;;;2107262;28;20395;-61
2023/01/07 03:33:20;;;;;;;23.98;13.30;;;;;;;;;;2104295;28;20027;-61
2023/01/07 03:34:21;;;;;;;26.55;13.77;;;;;;;;;;2104753;28;20020;-61
2023/01/07 03:35:22;;;;;;;23.10;13.15;;;;;;;;;;2107414;28;20523;-61
2023/01/07 03:36:24;;;;;;;23.45;13.52;;;;;;;;;;2105621;28;20046;-62
2023/01/07 03:37:25;;;;;;;28.15;14.27;;;;;;;;;;2090641;28;20436;-62
2023/01/07 03:38:26;;;;;;;26.48;13.10;;;;;;;;;;2106972;28;20020;-61
2023/01/07 03:39:28;;;;;;;30.67;15.65;;;;;;;;;;2107384;28;20443;-61
2023/01/07 03:40:28;;;;;;;26.63;13.75;;;;;;;;;;2104947;28;20065;-61
2023/01/07 03:42:48;;;;;;;29.20;14.23;;;;;;;;;;2104163;28;20032;-61
2023/01/07 03:43:48;;;;;;;31.40;14.13;;;;;;;;;;2107139;28;20047;-61
2023/01/07 03:44:48;;;;;;;25.47;13.97;;;;;;;;;;2103151;28;20031;-62
2023/01/07 03:45:49;;;;;;;28.70;13.65;;;;;;;;;;2103544;28;20248;-62
2023/01/07 03:46:49;;;;;;;25.90;14.40;;;;;;;;;;2107080;28;20012;-61
2023/01/07 03:47:51;;;;;;;34.30;15.43;;;;;;;;;;2104235;28;20075;-61
2023/01/07 03:48:51;;;;;;;24.73;14.25;;;;;;;;;;2107023;28;20044;-62
2023/01/07 03:49:51;;;;;;;32.72;15.13;;;;;;;;;;2104263;28;20031;-61
2023/01/07 03:50:51;;;;;;;28.65;14.48;;;;;;;;;;2107090;28;20054;-61
2023/01/07 03:51:53;;;;;;;25.30;14.57;;;;;;;;;;2105229;28;20031;-62
2023/01/07 03:52:53;;;;;;;29.75;15.40;;;;;;;;;;2107100;28;20247;-61
2023/01/07 03:53:53;;;;;;;31.27;16.27;;;;;;;;;;2103392;28;20056;-61
2023/01/07 03:54:53;;;;;;;31.67;15.07;;;;;;;;;;2105781;28;20229;-61
2023/01/07 03:55:53;;;;;;;29.90;14.90;;;;;;;;;;2107223;28;20253;-62
2023/01/07 03:56:53;;;;;;;26.15;15.13;;;;;;;;;;2107163;28;20683;-62
2023/01/07 03:57:54;;;;;;;28.33;14.47;;;;;;;;;;2101010;28;20024;-61
2023/01/07 03:58:54;;;;;;;29.63;14.60;;;;;;;;;;2107054;28;20266;-61
2023/01/07 03:59:54;;;;;;;27.55;14.68;;;;;;;;;;2104175;28;20028;-62
2023/01/07 04:00:54;;;;;;;30.50;15.15;;;;;;;;;;2102068;28;20024;-61
2023/01/07 04:01:55;;;;;;;30.77;15.77;;;;;;;;;;2107196;28;20024;-62
2023/01/07 04:02:55;;;;;;;31.83;15.45;;;;;;;;;;2102278;28;20269;-62
2023/01/07 04:03:55;;;;;;;28.07;15.40;;;;;;;;;;2107368;28;20024;-61
2023/01/07 04:04:55;;;;;;;34.93;17.03;;;;;;;;;;2105281;28;20604;-62
2023/01/07 04:05:55;;;;;;;38.40;16.98;;;;;;;;;;2107133;28;20253;-62
2023/01/07 04:06:55;;;;;;;37.50;16.40;;;;;;;;;;2105117;28;20028;-62
2023/01/07 04:07:55;;;;;;;30.10;16.75;;;;;;;;;;2106965;28;20749;-62
2023/01/07 04:08:56;;;;;;;34.38;16.27;;;;;;;;;;2104376;28;20060;-62
2023/01/07 04:09:56;;;;;;;37.45;17.02;;;;;;;;;;2104137;28;20024;-62
2023/01/07 04:10:56;;;;;;;33.93;16.70;;;;;;;;;;2104429;28;20455;-63
2023/01/07 04:11:56;;;;;;;31.42;17.80;;;;;;;;;;2102601;28;20620;-63
2023/01/07 04:12:56;;;;;;;35.67;17.30;;;;;;;;;;2107354;28;20031;-62
2023/01/07 04:13:59;;;;;;;30.10;16.33;;;;;;;;;;2098946;28;20291;-62
2023/01/07 04:14:59;;;;;;;32.92;17.70;;;;;;;;;;2103979;28;20248;-62
2023/01/07 04:15:59;;;;;;;37.80;17.85;;;;;;;;;;2103166;28;20016;-62
2023/01/07 04:17:00;;;;;;;34.13;17.85;;;;;;;;;;2104116;28;20382;-63
2023/01/07 04:18:00;;;;;;;36.00;18.00;;;;;;;;;;2107077;28;20024;-62
2023/01/07 04:19:00;;;;;;;30.30;17.30;;;;;;;;;;2106068;28;20298;-61
2023/01/07 04:20:00;;;;;;;38.70;19.27;;;;;;;;;;2107025;28;20251;-62
2023/01/07 04:21:00;;;;;;;35.20;19.50;;;;;;;;;;2107311;28;20080;-62
2023/01/07 04:22:00;;;;;;;41.20;19.50;;;;;;;;;;2099832;28;20077;-62
2023/01/07 04:23:01;;;;;;;41.33;20.37;;;;;;;;;;2107106;28;20256;-61
2023/01/07 04:24:01;;;;;;;42.33;20.52;;;;;;;;;;2099528;28;20293;-61
2023/01/07 04:25:01;;;;;;;42.15;20.50;;;;;;;;;;2103746;28;20490;-63
2023/01/07 04:26:01;;;;;;;42.47;20.47;;;;;;;;;;2106478;28;20028;-62
2023/01/07 04:27:01;;;;;;;44.05;21.23;;;;;;;;;;2097665;28;20294;-61
2023/01/07 04:28:01;;;;;;;41.15;21.08;;;;;;;;;;2102511;28;20481;-62
2023/01/07 04:29:02;;;;;;;45.08;21.80;;;;;;;;;;2106974;28;20377;-61
2023/01/07 04:30:02;;;;;;;51.97;22.60;;;;;;;;;;2105109;28;20032;-61
2023/01/07 04:31:02;;;;;;;48.65;22.92;;;;;;;;;;2107084;28;20086;-61
2023/01/07 04:32:03;;;;;;;48.33;22.17;;;;;;;;;;2105357;28;20463;-61
2023/01/07 04:33:04;;;;;;;49.92;22.77;;;;;;;;;;2106071;28;20107;-62
2023/01/07 04:34:04;;;;;;;46.38;22.45;;;;;;;;;;2102228;28;20099;-61
2023/01/07 04:35:04;;;;;;;47.23;23.67;;;;;;;;;;2105990;28;20047;-62
2023/01/07 04:36:05;;;;;;;57.35;23.65;;;;;;;;;;2106120;28;20302;-61
2023/01/07 04:37:05;;;;;;;53.45;24.05;;;;;;;;;;2105589;28;20474;-62
2023/01/07 04:38:05;;;;;;;50.80;23.63;;;;;;;;;;2106037;28;20012;-61
2023/01/07 04:39:05;;;;;;;53.55;23.77;;;;;;;;;;2106832;28;20101;-61
2023/01/07 04:40:06;;;;;;;51.40;23.10;;;;;;;;;;2105986;28;20035;-62
2023/01/07 04:41:06;;;;;;;53.08;23.55;;;;;;;;;;2104720;28;20313;-62
2023/01/07 04:42:06;;;;;;;51.42;22.90;;;;;;;;;;2106568;28;20024;-61
2023/01/07 04:43:07;;;;;;;46.67;22.70;;;;;;;;;;2101194;28;20036;-62
2023/01/07 04:44:07;;;;;;;46.35;21.98;;;;;;;;;;2105798;28;20028;-62
2023/01/07 04:45:08;;;;;;;50.83;23.67;;;;;;;;;;2105028;28;20039;-62
2023/01/07 04:46:08;;;;;;;52.05;23.00;;;;;;;;;;2107093;28;20028;-62
2023/01/07 04:47:08;;;;;;;44.43;21.53;;;;;;;;;;2106860;28;20020;-62
2023/01/07 04:48:08;;;;;;;43.17;21.07;;;;;;;;;;2104895;28;20264;-62
2023/01/07 04:49:08;;;;;;;41.92;20.85;;;;;;;;;;2102214;28;20281;-62
2023/01/07 04:50:08;;;;;;;45.63;21.75;;;;;;;;;;2107206;28;20077;-62
2023/01/07 04:51:08;;;;;;;40.23;20.27;;;;;;;;;;2107019;28;20481;-61
2023/01/07 04:52:09;;;;;;;38.65;20.13;;;;;;;;;;2104949;28;20656;-62
2023/01/07 04:53:09;;;;;;;42.25;20.35;;;;;;;;;;2104148;28;20051;-62
2023/01/07 04:54:09;;;;;;;49.03;22.20;;;;;;;;;;2104623;28;20056;-61
2023/01/07 04:55:09;;;;;;;41.90;21.13;;;;;;;;;;2106873;28;20027;-62
2023/01/07 04:56:10;;;;;;;41.85;21.13;;;;;;;;;;2104183;28;20024;-62
2023/01/07 04:57:10;;;;;;;46.00;21.60;;;;;;;;;;2108350;28;20099;-62
2023/01/07 04:58:10;;;;;;;45.83;22.80;;;;;;;;;;2104600;28;20324;-61
2023/01/07 04:59:10;;;;;;;46.40;21.67;;;;;;;;;;2108205;28;20036;-63
2023/01/07 05:00:10;;;;;;;38.90;20.15;;;;;;;;;;2097588;28;20272;-62
2023/01/07 05:01:11;;;;;;;44.35;21.30;;;;;;;;;;2099893;28;20527;-62
2023/01/07 05:02:11;;;;;;;46.67;21.35;;;;;;;;;;2100036;28;20112;-59
2023/01/07 05:03:11;;;;;;;43.80;20.83;;;;;;;;;;2100018;28;20383;-62
2023/01/07 05:04:11;;;;;;;43.72;20.85;;;;;;;;;;2100197;28;20261;-61
2023/01/07 05:05:11;;;;;;;41.78;21.33;;;;;;;;;;2102454;28;20069;-61
2023/01/07 05:06:12;;;;;;;36.13;19.98;;;;;;;;;;2104430;28;20020;-61
2023/01/07 05:07:12;;;;;;;36.72;20.33;;;;;;;;;;2105281;28;20115;-62
2023/01/07 05:08:12;;;;;;;39.33;20.00;;;;;;;;;;2107073;28;20031;-61
2023/01/07 05:09:12;;;;;;;40.05;19.17;;;;;;;;;;2108270;28;20063;-61
2023/01/07 05:10:12;;;;;;;39.72;19.58;;;;;;;;;;2106268;28;20043;-61
2023/01/07 05:11:14;;;;;;;44.90;20.48;;;;;;;;;;2108317;28;20027;-61
2023/01/07 05:12:14;;;;;;;41.22;19.88;;;;;;;;;;2103914;28;20025;-61
2023/01/07 05:13:15;;;;;;;37.03;18.70;;;;;;;;;;2103552;28;20773;-61
2023/01/07 05:14:15;;;;;;;37.60;19.65;;;;;;;;;;2102264;28;20095;-61
2023/01/07 05:15:15;;;;;;;36.87;19.43;;;;;;;;;;2108315;28;20027;-61
2023/01/07 05:16:15;;;;;;;36.88;19.33;;;;;;;;;;2104167;28;20257;-61
2023/01/07 05:17:16;;;;;;;41.03;19.60;;;;;;;;;;2106270;28;20051;-62
2023/01/07 05:18:16;;;;;;;37.23;19.83;;;;;;;;;;2105357;28;20382;-61
2023/01/07 05:19:16;;;;;;;35.45;19.00;;;;;;;;;;2105998;28;20256;-61
2023/01/07 05:20:16;;;;;;;35.08;19.38;;;;;;;;;;2108388;28;20434;-61
2023/01/07 05:21:16;;;;;;;35.07;18.60;;;;;;;;;;2107395;28;20056;-60
2023/01/07 05:22:17;;;;;;;38.15;19.63;;;;;;;;;;2104299;28;20320;-60
2023/01/07 05:23:17;;;;;;;38.07;19.50;;;;;;;;;;2106560;28;20039;-61
2023/01/07 05:24:17;;;;;;;33.97;18.13;;;;;;;;;;2099888;28;20343;-60
2023/01/07 05:25:17;;;;;;;34.63;18.30;;;;;;;;;;2100099;28;20233;-60
2023/01/07 05:26:17;;;;;;;38.33;18.57;;;;;;;;;;2105062;28;20023;-61
2023/01/07 05:27:17;;;;;;;36.63;18.37;;;;;;;;;;2105177;28;20245;-61
2023/01/07 05:28:17;;;;;;;39.63;18.80;;;;;;;;;;2099689;28;20245;-59
2023/01/07 05:29:18;;;;;;;40.83;19.77;;;;;;;;;;2107256;28;20482;-61
2023/01/07 05:30:18;;;;;;;40.58;17.88;;;;;;;;;;2107357;28;20257;-61
2023/01/07 05:31:19;;;;;;;37.88;16.42;;;;;;;;;;2108372;28;20024;-61
2023/01/07 05:32:19;;;;;;;36.20;16.45;;;;;;;;;;2105348;28;20062;-61
2023/01/07 05:33:19;;;;;;;33.50;15.68;;;;;;;;;;2108543;28;20020;-61
2023/01/07 05:34:19;;;;;;;28.10;14.77;;;;;;;;;;2100996;28;20031;-61
2023/01/07 05:35:19;;;;;;;35.45;18.10;;;;;;;;;;2108043;28;20240;-60
2023/01/07 05:36:20;;;;;;;34.63;16.13;;;;;;;;;;2106123;28;20371;-61
2023/01/07 05:37:20;;;;;;;33.38;15.85;;;;;;;;;;2104834;28;20240;-60
2023/01/07 05:38:20;;;;;;;37.60;17.63;;;;;;;;;;2106605;28;20036;-61
2023/01/07 05:39:20;;;;;;;37.03;17.30;;;;;;;;;;2108169;28;20249;-61
2023/01/07 05:40:20;;;;;;;38.65;17.77;;;;;;;;;;2106027;28;20304;-60
2023/01/07 05:41:20;;;;;;;35.63;17.53;;;;;;;;;;2104265;28;20028;-61
2023/01/07 05:42:21;;;;;;;35.83;17.17;;;;;;;;;;2107192;28;20276;-61
2023/01/07 05:43:21;;;;;;;38.87;17.90;;;;;;;;;;2105155;28;20272;-61
2023/01/07 05:44:21;;;;;;;37.97;18.13;;;;;;;;;;2107372;28;20716;-61
2023/01/07 05:45:21;;;;;;;34.22;17.40;;;;;;;;;;2108103;28;20287;-61
2023/01/07 05:46:21;;;;;;;38.17;18.20;;;;;;;;;;2108258;28;20105;-61
2023/01/07 05:47:21;;;;;;;41.22;19.25;;;;;;;;;;2105983;28;20071;-62
2023/01/07 05:48:21;;;;;;;36.00;18.43;;;;;;;;;;2107207;28;20069;-62
2023/01/07 05:49:22;;;;;;;35.25;18.67;;;;;;;;;;2108012;28;20276;-61
2023/01/07 05:50:22;;;;;;;35.17;18.45;;;;;;;;;;2105643;28;20042;-61
2023/01/07 05:51:22;;;;;;;39.90;20.40;;;;;;;;;;2107958;28;20023;-60
2023/01/07 05:52:22;;;;;;;41.60;20.83;;;;;;;;;;2106514;28;20274;-61
2023/01/07 05:53:22;;;;;;;40.80;21.33;;;;;;;;;;2108009;28;20714;-60
2023/01/07 05:54:22;;;;;;;45.70;21.52;;;;;;;;;;2103286;28;20284;-61
2023/01/07 05:55:22;;;;;;;47.63;22.65;;;;;;;;;;2107136;28;20024;-61
2023/01/07 05:56:23;;;;;;;47.73;21.87;;;;;;;;;;2108106;28;20020;-60
2023/01/07 05:57:23;;;;;;;49.10;23.02;;;;;;;;;;2102918;28;20296;-61
2023/01/07 05:58:24;;;;;;;51.90;23.67;;;;;;;;;;2099455;28;20443;-61
2023/01/07 05:59:24;;;;;;;54.40;24.77;;;;;;;;;;2098761;28;20330;-59
2023/01/07 06:00:24;;;;;;;53.55;23.63;;;;;;;;;;2103338;28;20059;-61
2023/01/07 06:01:24;;;;;;;63.17;26.33;;;;;;;;;;2107026;28;20481;-61
2023/01/07 06:02:24;;;;;;;63.13;26.63;;;;;;;;;;2104135;28;20347;-61
2023/01/07 06:03:24;;;;;;;54.00;24.37;;;;;;;;;;2108035;28;20298;-60
2023/01/07 06:04:25;;;;;;;68.25;26.55;;;;;;;;;;2101515;28;20311;-61
2023/01/07 06:05:25;;;;;;;72.18;27.70;;;;;;;;;;2108019;28;20440;-61
2023/01/07 06:06:25;;;;;;;67.57;28.07;;;;;;;;;;2107864;28;20024;-61
2023/01/07 06:07:25;;;;;;;70.68;28.98;;;;;;;;;;2105955;28;20657;-62
2023/01/07 06:08:25;;;;;;;63.58;25.65;;;;;;;;;;2107850;28;20017;-61
2023/01/07 06:09:28;;;;;;;57.17;25.27;;;;;;;;;;2100832;28;20048;-62
2023/01/07 06:10:28;;;;;;;52.08;24.13;;;;;;;;;;2107815;28;20237;-59
2023/01/07 06:11:28;;;;;;;57.97;26.00;;;;;;;;;;2108136;28;20352;-61
2023/01/07 06:12:29;;;;;;;54.50;26.13;;;;;;;;;;2100121;28;20024;-61
2023/01/07 06:13:30;;;;;;;46.28;23.15;;;;;;;;;;2102354;28;20022;-61
2023/01/07 06:14:30;;;;;;;44.72;23.83;;;;;;;;;;2107867;28;20127;-61
2023/01/07 06:15:30;;;;;;;30.90;17.65;;;;;;;;;;2105285;28;20027;-61
2023/01/07 06:16:30;;;;;;;37.13;20.67;;;;;;;;;;2106387;28;20047;-61
2023/01/07 06:17:30;;;;;;;40.87;22.43;;;;;;;;;;2107905;28;20099;-61
2023/01/07 06:18:31;;;;;;;36.67;20.40;;;;;;;;;;2106012;28;20265;-61